createdAt,value
2022-11-24T00:01:10.437Z,90536.22
2022-11-24T00:03:37.417Z,90533.16
2022-11-24T00:06:08.207Z,90536.81
2022-11-24T00:08:35.576Z,90538.69
2022-11-24T00:11:07.291Z,90543.25
2022-11-24T00:13:34.075Z,90543.81
2022-11-24T00:16:11.715Z,90539.44
2022-11-24T00:18:39.215Z,90544.72
2022-11-24T00:21:06.181Z,90549.91
2022-11-24T00:23:33.018Z,90549.97
2022-11-24T00:26:20.651Z,90559.13
2022-11-24T00:28:48.100Z,90558.28
2022-11-24T00:31:19.878Z,90558.78
2022-11-24T00:33:49.595Z,90554.16
2022-11-24T00:36:16.790Z,90560.06
2022-11-24T00:38:43.967Z,90565.28
2022-11-24T00:41:10.849Z,90562.59
2022-11-24T00:43:37.452Z,90564.69
2022-11-24T00:46:04.341Z,90568.59
2022-11-24T00:48:31.356Z,90562.59
2022-11-24T00:51:05.991Z,90567.97
2022-11-24T00:53:32.652Z,90567.31
2022-11-24T00:55:59.414Z,90566.66
2022-11-24T00:58:26.218Z,90561.94
2022-11-24T01:00:53.070Z,90568.28
2022-11-24T01:03:20.237Z,90570.47
2022-11-24T01:05:46.928Z,90563.44
2022-11-24T01:08:13.750Z,90569.38
2022-11-24T01:10:40.467Z,90573.63
2022-11-24T01:13:07.181Z,90566.75
2022-11-24T01:15:35.580Z,90566.94
2022-11-24T01:18:02.614Z,90568.25
2022-11-24T01:20:29.494Z,90573.88
2022-11-24T01:22:56.121Z,90568.44
2022-11-24T01:25:22.818Z,90566.09
2022-11-24T01:27:49.458Z,90575.28
2022-11-24T01:30:16.200Z,90577.34
2022-11-24T01:32:42.831Z,90573.75
2022-11-24T01:35:09.726Z,90567.38
2022-11-24T01:37:36.333Z,90566.69
2022-11-24T01:40:03.356Z,90566.88
2022-11-24T01:42:40.644Z,90573.91
2022-11-24T01:45:31.459Z,90573.88
2022-11-24T01:47:58.092Z,90570.59
2022-11-24T01:50:24.987Z,90569.72
2022-11-24T01:52:53.201Z,90573.97
2022-11-24T01:55:21.916Z,90574.66
2022-11-24T01:57:51.742Z,90561.69
2022-11-24T02:00:18.882Z,90569.19
2022-11-24T02:02:45.775Z,90569.72
2022-11-24T02:05:38.533Z,90566.91
2022-11-24T02:08:05.300Z,90573.91
2022-11-24T02:10:32.014Z,90572.44
2022-11-24T02:12:59.118Z,90579.59
2022-11-24T02:15:25.859Z,90577.03
2022-11-24T02:17:52.465Z,90575.56
2022-11-24T02:20:19.274Z,90578.41
2022-11-24T02:23:04.131Z,90578.09
2022-11-24T02:25:47.473Z,90570.72
2022-11-24T02:28:15.790Z,90576.75
2022-11-24T02:30:42.579Z,90578.84
2022-11-24T02:33:10.278Z,90580.78
2022-11-24T02:35:36.875Z,90583.69
2022-11-24T02:38:03.509Z,90580.81
2022-11-24T02:40:31.056Z,90581.41
2022-11-24T02:43:06.494Z,90577.44
2022-11-24T02:45:33.153Z,90579.81
2022-11-24T02:47:59.854Z,90578.66
2022-11-24T02:50:26.579Z,90569.53
2022-11-24T02:52:53.317Z,90573.22
2022-11-24T02:55:20.322Z,90567.19
2022-11-24T02:57:46.980Z,90574.34
2022-11-24T03:00:14.222Z,90575.13
2022-11-24T03:02:40.987Z,90568.06
2022-11-24T03:05:08.044Z,90565.66
2022-11-24T03:07:34.757Z,90565.50
2022-11-24T03:10:01.450Z,90562.69
2022-11-24T03:12:28.116Z,90567.84
2022-11-24T03:14:54.746Z,90573.16
2022-11-24T03:17:21.437Z,90571.56
2022-11-24T03:19:48.017Z,90573.72
2022-11-24T03:22:14.724Z,90576.91
2022-11-24T03:24:41.416Z,90580.28
2022-11-24T03:27:08.135Z,90581.94
2022-11-24T03:29:34.888Z,90583.13
2022-11-24T03:32:01.841Z,90582.47
2022-11-24T03:34:28.581Z,90583.88
2022-11-24T03:36:55.352Z,90590.81
2022-11-24T03:39:22.039Z,90590.28
2022-11-24T03:41:51.362Z,90594.31
2022-11-24T03:44:18.317Z,90595.47
2022-11-24T03:46:45.171Z,90596.50
2022-11-24T03:49:12.070Z,90597.97
2022-11-24T03:51:38.686Z,90601.03
2022-11-24T03:54:05.411Z,90603.47
2022-11-24T03:56:32.090Z,90610.50
2022-11-24T03:58:58.734Z,90605.75
2022-11-24T04:01:25.537Z,90607.44
2022-11-24T04:03:52.169Z,90599.00
2022-11-24T04:06:18.832Z,90610.19
2022-11-24T04:08:45.490Z,90612.78
2022-11-24T04:11:32.188Z,90618.19
2022-11-24T04:13:58.799Z,90616.97
2022-11-24T04:16:25.496Z,90616.78
2022-11-24T04:18:53.400Z,90610.63
2022-11-24T04:21:20.396Z,90612.59
2022-11-24T04:23:47.191Z,90613.91
2022-11-24T04:26:13.939Z,90614.16
2022-11-24T04:28:40.530Z,90618.38
2022-11-24T04:31:07.187Z,90615.59
2022-11-24T04:33:33.786Z,90615.34
2022-11-24T04:36:00.443Z,90622.47
2022-11-24T04:39:20.160Z,90625.16
2022-11-24T04:41:13.794Z,90631.56
2022-11-24T04:43:40.860Z,90629.16
2022-11-24T04:46:09.523Z,90623.63
2022-11-24T04:48:36.451Z,90630.19
2022-11-24T04:51:06.554Z,90630.41
2022-11-24T04:53:33.158Z,90627.03
2022-11-24T04:55:59.803Z,90622.81
2022-11-24T04:58:26.404Z,90627.78
2022-11-24T05:00:53.074Z,90636.50
2022-11-24T05:03:19.736Z,90641.28
2022-11-24T05:05:46.318Z,90635.22
2022-11-24T05:08:12.974Z,90646.44
2022-11-24T05:10:40.169Z,90650.06
2022-11-24T05:13:09.642Z,90648.53
2022-11-24T05:15:40.357Z,90661.06
2022-11-24T05:18:08.481Z,90665.78
2022-11-24T05:20:35.358Z,90665.78
2022-11-24T05:23:03.665Z,90656.78
2022-11-24T05:25:30.302Z,90662.38
2022-11-24T05:28:00.581Z,90658.34
2022-11-24T05:30:27.697Z,90667.25
2022-11-24T05:32:54.471Z,90663.81
2022-11-24T05:35:21.694Z,90669.03
2022-11-24T05:37:48.435Z,90667.22
2022-11-24T05:40:15.495Z,90667.56
2022-11-24T05:42:47.273Z,90671.28
2022-11-24T05:45:19.157Z,90670.53
2022-11-24T05:47:46.098Z,90670.56
2022-11-24T05:50:14.011Z,90677.50
2022-11-24T05:52:40.735Z,90679.91
2022-11-24T05:55:08.264Z,90686.56
2022-11-24T05:57:34.998Z,90688.97
2022-11-24T06:00:02.040Z,90684.94
2022-11-24T06:02:28.805Z,90698.41
2022-11-24T06:04:55.521Z,90697.81
2022-11-24T06:07:22.196Z,90697.53
2022-11-24T06:09:48.965Z,90704.47
2022-11-24T06:12:15.684Z,90703.56
2022-11-24T06:14:42.397Z,90707.09
2022-11-24T06:17:09.985Z,90707.38
2022-11-24T06:19:41.725Z,90714.59
2022-11-24T06:22:08.908Z,90702.16
2022-11-24T06:24:35.832Z,90703.53
2022-11-24T06:27:02.817Z,90707.63
2022-11-24T06:29:29.383Z,90712.09
2022-11-24T06:31:56.028Z,90714.28
2022-11-24T06:34:22.701Z,90718.94
2022-11-24T06:36:49.383Z,90714.97
2022-11-24T06:39:16.159Z,90721.13
2022-11-24T06:41:42.794Z,90718.88
2022-11-24T06:44:09.486Z,90719.38
2022-11-24T06:46:36.188Z,90722.41
2022-11-24T06:49:03.000Z,90734.53
2022-11-24T06:51:29.621Z,90729.63
2022-11-24T06:53:56.406Z,90731.81
2022-11-24T06:56:23.186Z,90730.06
2022-11-24T06:58:51.025Z,90747.81
2022-11-24T07:01:19.091Z,90732.38
2022-11-24T07:03:45.895Z,90735.69
2022-11-24T07:06:12.549Z,90734.06
2022-11-24T07:08:39.269Z,90738.66
2022-11-24T07:11:06.962Z,90732.69
2022-11-24T07:13:33.683Z,90743.91
2022-11-24T07:16:01.183Z,90742.53
2022-11-24T07:18:27.872Z,90740.88
2022-11-24T07:20:54.534Z,90745.38
2022-11-24T07:23:21.296Z,90747.38
2022-11-24T07:25:47.986Z,90741.84
2022-11-24T07:28:14.928Z,90746.75
2022-11-24T07:30:41.652Z,90743.63
2022-11-24T07:33:08.269Z,90744.34
2022-11-24T07:35:34.891Z,90750.84
2022-11-24T07:38:01.827Z,90752.91
2022-11-24T07:40:28.542Z,90751.56
2022-11-24T07:42:55.297Z,90746.28
2022-11-24T07:45:21.990Z,90746.59
2022-11-24T07:47:48.588Z,90758.94
2022-11-24T07:50:15.325Z,90759.22
2022-11-24T07:52:42.011Z,90758.53
2022-11-24T07:55:09.341Z,90759.16
2022-11-24T07:57:35.987Z,90759.72
2022-11-24T08:00:04.158Z,90767.72
2022-11-24T08:02:30.800Z,90764.06
2022-11-24T08:04:57.452Z,90759.16
2022-11-24T08:07:24.353Z,90772.53
2022-11-24T08:09:52.213Z,90776.09
2022-11-24T08:12:21.795Z,90777.63
2022-11-24T08:14:51.613Z,90774.91
2022-11-24T08:17:18.553Z,90779.63
2022-11-24T08:19:45.385Z,90774.88
2022-11-24T08:22:12.221Z,90781.97
2022-11-24T08:24:40.393Z,90783.59
2022-11-24T08:27:07.131Z,90788.34
2022-11-24T08:29:34.956Z,90786.97
2022-11-24T08:32:01.728Z,90784.50
2022-11-24T08:34:28.524Z,90786.63
2022-11-24T08:36:55.224Z,90788.56
2022-11-24T08:39:22.038Z,90789.22
2022-11-24T08:41:48.818Z,90790.16
2022-11-24T08:44:17.541Z,90784.25
2022-11-24T08:46:44.943Z,90790.34
2022-11-24T08:49:13.631Z,90794.59
2022-11-24T08:51:40.370Z,90792.22
2022-11-24T08:54:07.124Z,90794.38
2022-11-24T08:56:33.918Z,90796.50
2022-11-24T08:59:00.848Z,90802.31
2022-11-24T09:01:27.875Z,90804.25
2022-11-24T09:03:54.838Z,90808.91
2022-11-24T09:06:23.736Z,90807.59
2022-11-24T09:08:51.816Z,90811.97
2022-11-24T09:11:18.796Z,90817.47
2022-11-24T09:13:45.395Z,90811.06
2022-11-24T09:16:17.172Z,90820.03
2022-11-24T09:18:44.074Z,90816.06
2022-11-24T09:21:18.756Z,90816.69
2022-11-24T09:23:49.124Z,90818.44
2022-11-24T09:26:17.673Z,90817.72
2022-11-24T09:28:44.450Z,90819.69
2022-11-24T09:31:12.766Z,90811.19
2022-11-24T09:33:39.531Z,90814.47
2022-11-24T09:36:06.665Z,90812.63
2022-11-24T09:38:33.565Z,90813.72
2022-11-24T09:41:18.240Z,90811.97
2022-11-24T09:44:08.265Z,90823.69
2022-11-24T09:46:54.869Z,90815.53
2022-11-24T09:49:33.628Z,90805.72
2022-11-24T09:52:02.649Z,90805.16
2022-11-24T09:54:29.344Z,90819.28
2022-11-24T09:56:57.897Z,90806.97
2022-11-24T09:59:25.196Z,90808.38
2022-11-24T10:01:52.168Z,90819.28
2022-11-24T10:04:25.496Z,90816.97
2022-11-24T10:07:07.274Z,90818.81
2022-11-24T10:09:57.973Z,90816.75
2022-11-24T10:12:35.012Z,90821.50
2022-11-24T10:15:18.922Z,90821.38
2022-11-24T10:18:05.474Z,90827.19
2022-11-24T10:20:47.379Z,90821.56
2022-11-24T10:23:22.939Z,90823.41
2022-11-24T10:25:59.356Z,90816.81
2022-11-24T10:28:54.139Z,90819.78
2022-11-24T10:31:34.126Z,90811.25
2022-11-24T10:34:10.792Z,90807.44
2022-11-24T10:36:45.599Z,90812.88
2022-11-24T10:39:18.261Z,90817.03
2022-11-24T10:41:59.358Z,90820.13
2022-11-24T10:44:26.072Z,90817.16
2022-11-24T10:46:52.885Z,90814.88
2022-11-24T10:49:25.145Z,90822.19
2022-11-24T10:52:13.525Z,90824.94
2022-11-24T10:54:59.693Z,90812.72
2022-11-24T10:57:33.291Z,90821.47
2022-11-24T11:00:00.706Z,90817.56
2022-11-24T11:02:30.539Z,90814.97
2022-11-24T11:04:57.339Z,90814.19
2022-11-24T11:07:25.615Z,90823.50
2022-11-24T11:10:17.646Z,90821.84
2022-11-24T11:12:45.129Z,90820.97
2022-11-24T11:15:29.889Z,90812.84
2022-11-24T11:17:58.560Z,90814.41
2022-11-24T11:20:33.663Z,90815.66
2022-11-24T11:23:15.020Z,90819.25
2022-11-24T11:25:41.586Z,90819.47
2022-11-24T11:28:31.482Z,90818.00
2022-11-24T11:31:21.124Z,90813.50
2022-11-24T11:34:22.071Z,90821.56
2022-11-24T11:36:54.029Z,90821.06
2022-11-24T11:39:34.978Z,90826.91
2022-11-24T11:42:45.354Z,90826.06
2022-11-24T11:45:05.625Z,90828.25
2022-11-24T11:47:38.007Z,90829.97
2022-11-24T11:50:15.221Z,90829.19
2022-11-24T11:52:59.057Z,90828.25
2022-11-24T11:55:33.622Z,90835.53
2022-11-24T11:58:12.258Z,90834.31
2022-11-24T12:00:46.937Z,90839.19
2022-11-24T12:03:16.690Z,90834.44
2022-11-24T12:06:24.657Z,90840.56
2022-11-24T12:09:20.722Z,90841.94
2022-11-24T12:12:00.037Z,90845.97
2022-11-24T12:14:39.098Z,90851.09
2022-11-24T12:17:12.043Z,90854.03
2022-11-24T12:19:53.802Z,90863.66
2022-11-24T12:22:44.176Z,90861.31
2022-11-24T12:25:27.799Z,90873.13
2022-11-24T12:27:59.999Z,90884.63
2022-11-24T12:30:26.690Z,90880.41
2022-11-24T12:33:15.314Z,90873.38
2022-11-24T12:35:43.773Z,90872.25
2022-11-24T12:38:14.274Z,90875.41
2022-11-24T12:44:01.114Z,90884.22
2022-11-24T12:46:37.025Z,90898.50
2022-11-24T12:49:33.166Z,90891.50
2022-11-24T12:52:03.339Z,90886.91
2022-11-24T12:54:36.943Z,90896.41
2022-11-24T12:57:10.746Z,90898.03
2022-11-24T13:00:03.618Z,90889.88
2022-11-24T13:02:52.439Z,90888.50
2022-11-24T13:05:21.502Z,90885.34
2022-11-24T13:07:56.209Z,90903.75
2022-11-24T13:10:53.709Z,90904.72
2022-11-24T13:13:13.114Z,90907.03
2022-11-24T13:16:34.708Z,90896.69
2022-11-24T13:18:57.108Z,90904.78
2022-11-24T13:21:33.011Z,90903.72
2022-11-24T13:24:02.642Z,90911.63
2022-11-24T13:26:48.624Z,90908.97
2022-11-24T13:29:25.462Z,90897.25
2022-11-24T13:31:52.405Z,90908.00
2022-11-24T13:34:41.136Z,90907.47
2022-11-24T13:37:32.103Z,90911.47
2022-11-24T13:40:14.468Z,90909.91
2022-11-24T13:43:10.531Z,90913.22
2022-11-24T13:45:40.710Z,90918.50
2022-11-24T13:48:20.175Z,90922.00
2022-11-24T13:50:50.385Z,90915.97
2022-11-24T13:53:40.350Z,90922.38
2022-11-24T13:56:24.796Z,90923.06
2022-11-24T13:58:52.334Z,90925.84
2022-11-24T14:01:29.130Z,90932.44
2022-11-24T14:07:09.768Z,90936.63
2022-11-24T14:09:43.753Z,90952.66
2022-11-24T14:12:13.465Z,90950.31
2022-11-24T14:14:41.045Z,90944.53
2022-11-24T14:17:17.376Z,90944.53
2022-11-24T14:19:48.425Z,90954.00
2022-11-24T14:22:26.777Z,90950.22
2022-11-24T14:24:58.046Z,90957.44
2022-11-24T14:27:42.776Z,90962.50
2022-11-24T14:30:15.449Z,90967.34
2022-11-24T14:32:59.253Z,90966.50
2022-11-24T14:35:33.489Z,90966.09
2022-11-24T14:38:02.085Z,90964.88
2022-11-24T14:40:49.290Z,90981.66
2022-11-24T14:43:25.888Z,90980.97
2022-11-24T14:46:00.568Z,90980.88
2022-11-24T14:48:32.265Z,90982.63
2022-11-24T14:51:10.984Z,90987.91
2022-11-24T14:53:41.398Z,90984.16
2022-11-24T14:56:09.929Z,90988.75
2022-11-24T14:58:41.988Z,90998.38
2022-11-24T15:01:11.219Z,91003.41
2022-11-24T15:03:37.833Z,91004.97
2022-11-24T15:06:04.565Z,91002.13
2022-11-24T15:08:35.991Z,91002.53
2022-11-24T15:11:03.801Z,91006.72
2022-11-24T15:13:34.916Z,91003.56
2022-11-24T15:16:03.670Z,91007.34
2022-11-24T15:18:38.258Z,91005.38
2022-11-24T15:21:04.974Z,91022.81
2022-11-24T15:23:32.277Z,91026.00
2022-11-24T15:26:01.920Z,91029.06
2022-11-24T15:28:29.844Z,91032.81
2022-11-24T15:31:00.731Z,91034.41
2022-11-24T15:33:27.628Z,91036.94
2022-11-24T15:35:54.263Z,91040.34
2022-11-24T15:38:21.146Z,91043.16
2022-11-24T15:40:48.962Z,91050.16
2022-11-24T15:43:27.897Z,91046.59
2022-11-24T15:45:54.570Z,91048.38
2022-11-24T15:48:21.260Z,91043.50
2022-11-24T15:50:47.991Z,91047.25
2022-11-24T15:53:25.822Z,91055.47
2022-11-24T15:55:52.609Z,91053.22
2022-11-24T15:58:19.377Z,91054.75
2022-11-24T16:00:46.278Z,91055.47
2022-11-24T16:03:45.180Z,91055.59
2022-11-24T16:05:59.660Z,91047.44
2022-11-24T16:08:26.395Z,91055.75
2022-11-24T16:10:53.045Z,91052.63
2022-11-24T16:13:19.667Z,91061.66
2022-11-24T16:15:46.604Z,91056.69
2022-11-24T16:18:14.037Z,91063.63
2022-11-24T16:20:40.705Z,91060.22
2022-11-24T16:23:07.443Z,91060.38
2022-11-24T16:25:34.079Z,91073.28
2022-11-24T16:28:00.800Z,91076.66
2022-11-24T16:30:27.417Z,91071.34
2022-11-24T16:32:54.136Z,91076.41
2022-11-24T16:35:20.886Z,91068.53
2022-11-24T16:37:49.562Z,91065.09
2022-11-24T16:40:16.524Z,91075.72
2022-11-24T16:42:43.154Z,91080.78
2022-11-24T16:45:12.004Z,91071.22
2022-11-24T16:47:40.194Z,91074.03
2022-11-24T16:50:08.422Z,91066.44
2022-11-24T16:52:35.127Z,91068.13
2022-11-24T16:55:02.058Z,91071.38
2022-11-24T16:57:28.766Z,91063.13
2022-11-24T16:59:55.417Z,91070.94
2022-11-24T17:02:22.318Z,91081.34
2022-11-24T17:04:52.450Z,91078.44
2022-11-24T17:07:19.863Z,91073.84
2022-11-24T17:09:46.514Z,91080.97
2022-11-24T17:12:13.212Z,91076.91
2022-11-24T17:14:39.925Z,91077.13
2022-11-24T17:17:06.606Z,91085.03
2022-11-24T17:19:33.274Z,91082.53
2022-11-24T17:21:59.970Z,91073.00
2022-11-24T17:24:26.718Z,91077.53
2022-11-24T17:26:53.401Z,91080.16
2022-11-24T17:29:20.623Z,91083.88
2022-11-24T17:31:47.755Z,91091.22
2022-11-24T17:34:14.576Z,91091.50
2022-11-24T17:36:44.689Z,91095.38
2022-11-24T17:39:11.492Z,91102.03
2022-11-24T17:41:38.204Z,91102.47
2022-11-24T17:44:06.213Z,91098.66
2022-11-24T17:46:33.065Z,91091.84
2022-11-24T17:48:59.758Z,91090.97
2022-11-24T17:51:26.765Z,91091.31
2022-11-24T17:53:54.041Z,91097.06
2022-11-24T17:56:25.431Z,91098.94
2022-11-24T17:58:54.304Z,91102.66
2022-11-24T18:01:21.182Z,91110.06
2022-11-24T18:03:53.171Z,91103.44
2022-11-24T18:06:20.726Z,91098.63
2022-11-24T18:08:47.741Z,91093.31
2022-11-24T18:11:16.263Z,91105.13
2022-11-24T18:14:01.013Z,91099.47
2022-11-24T18:16:30.198Z,91105.59
2022-11-24T18:19:07.738Z,91095.41
2022-11-24T18:21:35.171Z,91090.22
2022-11-24T18:24:04.035Z,91101.34
2022-11-24T18:26:30.735Z,91102.75
2022-11-24T18:28:57.536Z,91105.13
2022-11-24T18:31:24.284Z,91100.63
2022-11-24T18:33:50.911Z,91099.28
2022-11-24T18:36:18.918Z,91101.28
2022-11-24T18:38:45.620Z,91105.94
2022-11-24T18:41:13.297Z,91107.38
2022-11-24T18:43:40.052Z,91105.44
2022-11-24T18:46:07.864Z,91107.81
2022-11-24T18:48:34.605Z,91109.91
2022-11-24T18:51:01.461Z,91110.19
2022-11-24T18:53:28.350Z,91109.59
2022-11-24T18:56:02.212Z,91108.91
2022-11-24T18:58:30.155Z,91116.38
2022-11-24T19:01:09.096Z,91122.19
2022-11-24T19:03:44.958Z,91116.97
2022-11-24T19:06:23.131Z,91125.09
2022-11-24T19:08:54.786Z,91111.78
2022-11-24T19:11:23.084Z,91114.75
2022-11-24T19:13:49.943Z,91117.06
2022-11-24T19:16:17.893Z,91121.22
2022-11-24T19:18:50.247Z,91121.72
2022-11-24T19:21:20.061Z,91125.19
2022-11-24T19:23:46.638Z,91114.25
2022-11-24T19:26:13.320Z,91120.19
2022-11-24T19:28:39.965Z,91124.91
2022-11-24T19:31:08.213Z,91119.00
2022-11-24T19:33:34.897Z,91126.03
2022-11-24T19:36:10.938Z,91125.25
2022-11-24T19:38:37.690Z,91134.53
2022-11-24T19:41:08.508Z,91127.94
2022-11-24T19:43:35.227Z,91129.41
2022-11-24T19:46:08.623Z,91137.34
2022-11-24T19:48:43.244Z,91144.78
2022-11-24T19:51:14.649Z,91143.63
2022-11-24T19:53:41.571Z,91144.06
2022-11-24T19:56:10.223Z,91145.81
2022-11-24T19:58:37.019Z,91144.53
2022-11-24T20:01:11.517Z,91154.13
2022-11-24T20:03:38.314Z,91152.88
2022-11-24T20:06:05.554Z,91154.22
2022-11-24T20:08:32.658Z,91157.91
2022-11-24T20:11:16.314Z,91159.19
2022-11-24T20:13:43.825Z,91151.69
2022-11-24T20:16:20.119Z,91152.53
2022-11-24T20:18:47.624Z,91158.72
2022-11-24T20:21:16.453Z,91156.41
2022-11-24T20:23:43.400Z,91147.25
2022-11-24T20:26:14.858Z,91157.06
2022-11-24T20:28:41.705Z,91165.25
2022-11-24T20:31:10.401Z,91150.41
2022-11-24T20:33:37.223Z,91153.06
2022-11-24T20:36:03.841Z,91153.34
2022-11-24T20:38:30.893Z,91150.88
2022-11-24T20:41:09.059Z,91155.06
2022-11-24T20:43:36.650Z,91155.34
2022-11-24T20:46:10.093Z,91151.97
2022-11-24T20:48:36.907Z,91154.16
2022-11-24T20:51:17.525Z,91152.19
2022-11-24T20:53:44.145Z,91155.56
2022-11-24T20:56:18.953Z,91160.09
2022-11-24T20:58:45.685Z,91164.81
2022-11-24T21:01:22.456Z,91159.19
2022-11-24T21:03:53.078Z,91163.03
2022-11-24T21:06:19.717Z,91166.91
2022-11-24T21:08:46.461Z,91164.25
2022-11-24T21:11:14.127Z,91168.75
2022-11-24T21:13:43.723Z,91170.91
2022-11-24T21:16:18.322Z,91165.47
2022-11-24T21:18:45.893Z,91162.84
2022-11-24T21:21:12.987Z,91165.13
2022-11-24T21:23:39.849Z,91167.75
2022-11-24T21:26:11.478Z,91163.50
2022-11-24T21:28:42.132Z,91169.06
2022-11-24T21:31:10.580Z,91166.03
2022-11-24T21:33:41.809Z,91167.56
2022-11-24T21:36:08.845Z,91170.66
2022-11-24T21:38:35.554Z,91162.97
2022-11-24T21:41:06.215Z,91167.72
2022-11-24T21:43:32.897Z,91172.31
2022-11-24T21:46:02.900Z,91176.59
2022-11-24T21:48:30.020Z,91175.97
2022-11-24T21:51:00.548Z,91176.94
2022-11-24T21:53:30.122Z,91175.22
2022-11-24T21:55:57.426Z,91171.59
2022-11-24T21:58:24.520Z,91170.28
2022-11-24T22:00:51.353Z,91176.44
2022-11-24T22:03:18.754Z,91173.00
2022-11-24T22:05:55.458Z,91169.72
2022-11-24T22:08:22.716Z,91171.28
2022-11-24T22:10:49.396Z,91169.41
2022-11-24T22:13:16.216Z,91176.88
2022-11-24T22:15:42.840Z,91173.03
2022-11-24T22:18:09.596Z,91168.06
2022-11-24T22:20:36.390Z,91178.38
2022-11-24T22:23:03.024Z,91178.75
2022-11-24T22:25:29.738Z,91174.75
2022-11-24T22:27:56.834Z,91179.75
2022-11-24T22:30:23.477Z,91183.97
2022-11-24T22:32:50.166Z,91186.53
2022-11-24T22:35:16.739Z,91189.88
2022-11-24T22:37:43.333Z,91190.03
2022-11-24T22:40:10.177Z,91197.72
2022-11-24T22:42:36.805Z,91193.34
2022-11-24T22:45:03.684Z,91191.06
2022-11-24T22:47:30.391Z,91190.97
2022-11-24T22:49:56.973Z,91195.84
2022-11-24T22:52:23.606Z,91196.16
2022-11-24T22:54:50.381Z,91193.41
2022-11-24T22:57:17.017Z,91192.81
2022-11-24T22:59:43.589Z,91201.44
2022-11-24T23:02:10.295Z,91199.22
2022-11-24T23:04:37.177Z,91207.78
2022-11-24T23:07:04.054Z,91204.31
2022-11-24T23:09:30.669Z,91206.34
2022-11-24T23:11:57.344Z,91218.19
2022-11-24T23:14:24.204Z,91212.47
2022-11-24T23:16:50.947Z,91220.16
2022-11-24T23:19:17.901Z,91217.72
2022-11-24T23:21:44.459Z,91219.59
2022-11-24T23:24:11.180Z,91219.69
2022-11-24T23:26:39.309Z,91217.47
2022-11-24T23:29:06.365Z,91212.72
2022-11-24T23:31:33.273Z,91213.72
2022-11-24T23:34:01.381Z,91217.09
2022-11-24T23:36:28.206Z,91217.72
2022-11-24T23:38:54.939Z,91226.41
2022-11-24T23:41:23.129Z,91230.91
2022-11-24T23:43:49.852Z,91226.59
2022-11-24T23:46:21.006Z,91238.53
2022-11-24T23:48:48.075Z,91234.47
2022-11-24T23:51:19.072Z,91251.53
2022-11-24T23:53:45.900Z,91252.41
2022-11-24T23:56:17.362Z,91240.44
2022-11-24T23:58:44.225Z,91247.50
